sensor_id;sensor_type;location;lat;lon;timestamp;temperature;humidity
24444;DHT22;13346;50.984;5.822;2022-10-19T00:01:02;8.30;99.90
24444;DHT22;13346;50.984;5.822;2022-10-19T00:03:31;8.20;99.90
24444;DHT22;13346;50.984;5.822;2022-10-19T00:05:59;8.20;99.90
24444;DHT22;13346;50.984;5.822;2022-10-19T00:08:26;7.90;99.90
24444;DHT22;13346;50.984;5.822;2022-10-19T00:10:54;7.80;99.90
24444;DHT22;13346;50.984;5.822;2022-10-19T00:13:21;7.90;99.90
24444;DHT22;13346;50.984;5.822;2022-10-19T00:15:48;8.00;99.90
24444;DHT22;13346;50.984;5.822;2022-10-19T00:18:15;8.00;99.90
24444;DHT22;13346;50.984;5.822;2022-10-19T00:20:44;7.90;99.90
24444;DHT22;13346;50.984;5.822;2022-10-19T00:23:11;8.00;99.90
24444;DHT22;13346;50.984;5.822;2022-10-19T00:25:38;7.90;99.90
24444;DHT22;13346;50.984;5.822;2022-10-19T00:28:05;7.90;99.90
24444;DHT22;13346;50.984;5.822;2022-10-19T00:30:35;8.00;99.90
24444;DHT22;13346;50.984;5.822;2022-10-19T00:33:02;7.90;99.90
24444;DHT22;13346;50.984;5.822;2022-10-19T00:35:30;7.90;99.90
24444;DHT22;13346;50.984;5.822;2022-10-19T00:37:59;7.90;99.90
24444;DHT22;13346;50.984;5.822;2022-10-19T00:40:26;7.90;99.90
24444;DHT22;13346;50.984;5.822;2022-10-19T00:42:54;7.80;99.90
24444;DHT22;13346;50.984;5.822;2022-10-19T00:45:21;7.80;99.90
24444;DHT22;13346;50.984;5.822;2022-10-19T00:47:49;7.90;99.90
24444;DHT22;13346;50.984;5.822;2022-10-19T00:50:17;7.80;99.90
24444;DHT22;13346;50.984;5.822;2022-10-19T00:52:44;7.70;99.90
24444;DHT22;13346;50.984;5.822;2022-10-19T00:55:12;7.80;99.90
24444;DHT22;13346;50.984;5.822;2022-10-19T00:57:40;7.80;99.90
24444;DHT22;13346;50.984;5.822;2022-10-19T01:00:08;8.00;99.90
24444;DHT22;13346;50.984;5.822;2022-10-19T01:02:36;7.70;99.90
24444;DHT22;13346;50.984;5.822;2022-10-19T01:05:04;7.70;99.90
24444;DHT22;13346;50.984;5.822;2022-10-19T01:07:32;7.80;99.90
24444;DHT22;13346;50.984;5.822;2022-10-19T01:09:59;7.80;99.90
24444;DHT22;13346;50.984;5.822;2022-10-19T01:12:56;7.90;99.90
24444;DHT22;13346;50.984;5.822;2022-10-19T01:15:31;7.90;99.90
24444;DHT22;13346;50.984;5.822;2022-10-19T01:18:08;7.80;99.90
24444;DHT22;13346;50.984;5.822;2022-10-19T01:21:00;7.70;99.90
24444;DHT22;13346;50.984;5.822;2022-10-19T01:24:08;7.70;99.90
24444;DHT22;13346;50.984;5.822;2022-10-19T01:30:12;7.70;99.90
24444;DHT22;13346;50.984;5.822;2022-10-19T01:32:54;7.60;99.90
24444;DHT22;13346;50.984;5.822;2022-10-19T01:35:26;7.60;99.90
24444;DHT22;13346;50.984;5.822;2022-10-19T01:38:10;7.60;99.90
24444;DHT22;13346;50.984;5.822;2022-10-19T01:40:46;7.50;99.90
24444;DHT22;13346;50.984;5.822;2022-10-19T01:43:22;7.60;99.90
24444;DHT22;13346;50.984;5.822;2022-10-19T01:45:56;7.50;99.90
24444;DHT22;13346;50.984;5.822;2022-10-19T01:48:27;7.60;99.90
24444;DHT22;13346;50.984;5.822;2022-10-19T01:50:57;7.60;99.90
24444;DHT22;13346;50.984;5.822;2022-10-19T01:53:28;7.40;99.90
24444;DHT22;13346;50.984;5.822;2022-10-19T01:55:57;7.50;99.90
24444;DHT22;13346;50.984;5.822;2022-10-19T01:58:27;7.30;99.90
24444;DHT22;13346;50.984;5.822;2022-10-19T02:01:01;7.40;99.90
24444;DHT22;13346;50.984;5.822;2022-10-19T02:03:30;7.30;99.90
24444;DHT22;13346;50.984;5.822;2022-10-19T02:06:01;7.30;99.90
24444;DHT22;13346;50.984;5.822;2022-10-19T02:08:33;7.20;99.90
24444;DHT22;13346;50.984;5.822;2022-10-19T02:11:04;7.30;99.90
24444;DHT22;13346;50.984;5.822;2022-10-19T02:13:32;7.30;99.90
24444;DHT22;13346;50.984;5.822;2022-10-19T02:16:06;7.20;99.90
24444;DHT22;13346;50.984;5.822;2022-10-19T02:18:36;7.20;99.90
24444;DHT22;13346;50.984;5.822;2022-10-19T02:21:05;7.20;99.90
24444;DHT22;13346;50.984;5.822;2022-10-19T02:23:34;7.20;99.90
24444;DHT22;13346;50.984;5.822;2022-10-19T02:26:01;7.20;99.90
24444;DHT22;13346;50.984;5.822;2022-10-19T02:28:29;7.20;99.90
24444;DHT22;13346;50.984;5.822;2022-10-19T02:30:57;7.20;99.90
24444;DHT22;13346;50.984;5.822;2022-10-19T02:33:26;7.20;99.90
24444;DHT22;13346;50.984;5.822;2022-10-19T02:35:54;7.20;99.90
24444;DHT22;13346;50.984;5.822;2022-10-19T02:38:23;7.20;99.90
24444;DHT22;13346;50.984;5.822;2022-10-19T02:40:56;7.30;99.90
24444;DHT22;13346;50.984;5.822;2022-10-19T02:43:26;7.30;99.90
24444;DHT22;13346;50.984;5.822;2022-10-19T02:45:58;7.30;99.90
24444;DHT22;13346;50.984;5.822;2022-10-19T02:48:29;7.30;99.90
24444;DHT22;13346;50.984;5.822;2022-10-19T02:50:57;7.40;99.90
24444;DHT22;13346;50.984;5.822;2022-10-19T02:53:25;7.40;99.90
24444;DHT22;13346;50.984;5.822;2022-10-19T02:55:52;7.60;99.90
24444;DHT22;13346;50.984;5.822;2022-10-19T02:58:19;7.50;99.90
24444;DHT22;13346;50.984;5.822;2022-10-19T03:00:46;7.60;99.90
24444;DHT22;13346;50.984;5.822;2022-10-19T03:03:13;7.60;99.90
24444;DHT22;13346;50.984;5.822;2022-10-19T03:05:42;7.60;99.90
24444;DHT22;13346;50.984;5.822;2022-10-19T03:08:09;7.50;99.90
24444;DHT22;13346;50.984;5.822;2022-10-19T03:10:36;7.50;99.90
24444;DHT22;13346;50.984;5.822;2022-10-19T03:13:03;7.20;99.90
24444;DHT22;13346;50.984;5.822;2022-10-19T03:15:30;7.50;99.90
24444;DHT22;13346;50.984;5.822;2022-10-19T03:17:58;7.50;99.90
24444;DHT22;13346;50.984;5.822;2022-10-19T03:20:25;7.50;99.90
24444;DHT22;13346;50.984;5.822;2022-10-19T03:22:53;7.60;99.90
24444;DHT22;13346;50.984;5.822;2022-10-19T03:25:20;7.60;99.90
24444;DHT22;13346;50.984;5.822;2022-10-19T03:27:47;7.40;99.90
24444;DHT22;13346;50.984;5.822;2022-10-19T03:30:15;7.30;99.90
24444;DHT22;13346;50.984;5.822;2022-10-19T03:32:42;7.20;99.90
24444;DHT22;13346;50.984;5.822;2022-10-19T03:35:09;7.30;99.90
24444;DHT22;13346;50.984;5.822;2022-10-19T03:37:36;7.10;99.90
24444;DHT22;13346;50.984;5.822;2022-10-19T03:40:06;7.10;99.90
24444;DHT22;13346;50.984;5.822;2022-10-19T03:42:33;6.80;99.90
24444;DHT22;13346;50.984;5.822;2022-10-19T03:45:01;6.90;99.90
24444;DHT22;13346;50.984;5.822;2022-10-19T03:47:28;6.90;99.90
24444;DHT22;13346;50.984;5.822;2022-10-19T03:49:56;7.00;99.90
24444;DHT22;13346;50.984;5.822;2022-10-19T03:52:23;7.20;99.90
24444;DHT22;13346;50.984;5.822;2022-10-19T03:54:50;7.30;99.90
24444;DHT22;13346;50.984;5.822;2022-10-19T03:57:18;7.20;99.90
24444;DHT22;13346;50.984;5.822;2022-10-19T03:59:46;7.30;99.90
24444;DHT22;13346;50.984;5.822;2022-10-19T04:02:13;7.30;99.90
24444;DHT22;13346;50.984;5.822;2022-10-19T04:04:40;7.40;99.90
24444;DHT22;13346;50.984;5.822;2022-10-19T04:07:07;7.50;99.90
24444;DHT22;13346;50.984;5.822;2022-10-19T04:09:34;7.50;99.90
24444;DHT22;13346;50.984;5.822;2022-10-19T04:12:02;7.40;99.90
24444;DHT22;13346;50.984;5.822;2022-10-19T04:14:31;7.60;99.90
24444;DHT22;13346;50.984;5.822;2022-10-19T04:16:58;7.50;99.90
24444;DHT22;13346;50.984;5.822;2022-10-19T04:19:25;7.60;99.90
24444;DHT22;13346;50.984;5.822;2022-10-19T04:21:52;7.70;99.90
24444;DHT22;13346;50.984;5.822;2022-10-19T04:24:20;7.80;99.90
24444;DHT22;13346;50.984;5.822;2022-10-19T04:26:48;7.70;99.90
24444;DHT22;13346;50.984;5.822;2022-10-19T04:29:17;7.80;99.90
24444;DHT22;13346;50.984;5.822;2022-10-19T04:31:47;7.80;99.90
24444;DHT22;13346;50.984;5.822;2022-10-19T04:34:15;7.90;99.90
24444;DHT22;13346;50.984;5.822;2022-10-19T04:36:43;7.80;99.90
24444;DHT22;13346;50.984;5.822;2022-10-19T04:39:10;7.80;99.90
24444;DHT22;13346;50.984;5.822;2022-10-19T04:41:38;7.70;99.90
24444;DHT22;13346;50.984;5.822;2022-10-19T04:44:05;7.80;99.90
24444;DHT22;13346;50.984;5.822;2022-10-19T04:46:32;7.80;99.90
24444;DHT22;13346;50.984;5.822;2022-10-19T04:49:01;7.90;99.90
24444;DHT22;13346;50.984;5.822;2022-10-19T04:51:31;7.80;99.90
24444;DHT22;13346;50.984;5.822;2022-10-19T04:53:58;7.80;99.90
24444;DHT22;13346;50.984;5.822;2022-10-19T04:56:26;7.80;99.90
24444;DHT22;13346;50.984;5.822;2022-10-19T04:58:54;7.80;99.90
24444;DHT22;13346;50.984;5.822;2022-10-19T05:01:23;7.80;99.90
24444;DHT22;13346;50.984;5.822;2022-10-19T05:03:53;7.70;99.90
24444;DHT22;13346;50.984;5.822;2022-10-19T05:06:23;7.80;99.90
24444;DHT22;13346;50.984;5.822;2022-10-19T05:08:50;7.70;99.90
24444;DHT22;13346;50.984;5.822;2022-10-19T05:11:18;7.80;99.90
24444;DHT22;13346;50.984;5.822;2022-10-19T05:13:45;7.80;99.90
24444;DHT22;13346;50.984;5.822;2022-10-19T05:16:14;7.80;99.90
24444;DHT22;13346;50.984;5.822;2022-10-19T05:18:45;7.60;99.90
24444;DHT22;13346;50.984;5.822;2022-10-19T05:21:13;7.70;99.90
24444;DHT22;13346;50.984;5.822;2022-10-19T05:23:42;7.70;99.90
24444;DHT22;13346;50.984;5.822;2022-10-19T05:26:11;7.60;99.90
24444;DHT22;13346;50.984;5.822;2022-10-19T05:28:38;7.60;99.90
24444;DHT22;13346;50.984;5.822;2022-10-19T05:31:07;7.60;99.90
24444;DHT22;13346;50.984;5.822;2022-10-19T05:33:35;7.60;99.90
24444;DHT22;13346;50.984;5.822;2022-10-19T05:36:11;7.60;99.90
24444;DHT22;13346;50.984;5.822;2022-10-19T05:38:38;7.60;99.90
24444;DHT22;13346;50.984;5.822;2022-10-19T05:41:07;7.50;99.90
24444;DHT22;13346;50.984;5.822;2022-10-19T05:43:34;7.40;99.90
24444;DHT22;13346;50.984;5.822;2022-10-19T05:46:03;7.50;99.90
24444;DHT22;13346;50.984;5.822;2022-10-19T05:48:30;7.40;99.90
24444;DHT22;13346;50.984;5.822;2022-10-19T05:50:59;7.40;99.90
24444;DHT22;13346;50.984;5.822;2022-10-19T05:53:27;7.30;99.90
24444;DHT22;13346;50.984;5.822;2022-10-19T05:55:55;7.40;99.90
24444;DHT22;13346;50.984;5.822;2022-10-19T05:58:23;7.20;99.90
24444;DHT22;13346;50.984;5.822;2022-10-19T06:00:52;7.30;99.90
24444;DHT22;13346;50.984;5.822;2022-10-19T06:03:20;7.20;99.90
24444;DHT22;13346;50.984;5.822;2022-10-19T06:05:48;7.20;99.90
24444;DHT22;13346;50.984;5.822;2022-10-19T06:08:16;7.10;99.90
24444;DHT22;13346;50.984;5.822;2022-10-19T06:10:43;7.20;99.90
24444;DHT22;13346;50.984;5.822;2022-10-19T06:13:13;7.10;99.90
24444;DHT22;13346;50.984;5.822;2022-10-19T06:15:42;7.10;99.90
24444;DHT22;13346;50.984;5.822;2022-10-19T06:18:10;7.20;99.90
24444;DHT22;13346;50.984;5.822;2022-10-19T06:20:38;7.20;99.90
24444;DHT22;13346;50.984;5.822;2022-10-19T06:23:06;7.20;99.90
24444;DHT22;13346;50.984;5.822;2022-10-19T06:25:34;7.30;99.90
24444;DHT22;13346;50.984;5.822;2022-10-19T06:28:03;7.40;99.90
24444;DHT22;13346;50.984;5.822;2022-10-19T06:30:30;7.40;99.90
24444;DHT22;13346;50.984;5.822;2022-10-19T06:32:59;7.40;99.90
24444;DHT22;13346;50.984;5.822;2022-10-19T06:35:26;7.30;99.90
24444;DHT22;13346;50.984;5.822;2022-10-19T06:37:55;7.40;99.90
24444;DHT22;13346;50.984;5.822;2022-10-19T06:40:23;7.40;99.90
24444;DHT22;13346;50.984;5.822;2022-10-19T06:42:50;7.40;99.90
24444;DHT22;13346;50.984;5.822;2022-10-19T06:45:18;7.50;99.90
24444;DHT22;13346;50.984;5.822;2022-10-19T06:47:45;7.40;99.90
24444;DHT22;13346;50.984;5.822;2022-10-19T06:50:17;7.50;99.90
24444;DHT22;13346;50.984;5.822;2022-10-19T06:52:45;7.60;99.90
24444;DHT22;13346;50.984;5.822;2022-10-19T06:55:12;7.60;99.90
24444;DHT22;13346;50.984;5.822;2022-10-19T06:57:39;7.70;99.90
24444;DHT22;13346;50.984;5.822;2022-10-19T07:00:07;7.70;99.90
24444;DHT22;13346;50.984;5.822;2022-10-19T07:02:35;7.70;99.90
24444;DHT22;13346;50.984;5.822;2022-10-19T07:05:02;7.70;99.90
24444;DHT22;13346;50.984;5.822;2022-10-19T07:07:31;7.70;99.90
24444;DHT22;13346;50.984;5.822;2022-10-19T07:09:58;7.80;99.90
24444;DHT22;13346;50.984;5.822;2022-10-19T07:12:25;7.70;99.90
24444;DHT22;13346;50.984;5.822;2022-10-19T07:14:53;7.80;99.90
24444;DHT22;13346;50.984;5.822;2022-10-19T07:17:20;7.90;99.90
24444;DHT22;13346;50.984;5.822;2022-10-19T07:19:47;7.90;99.90
24444;DHT22;13346;50.984;5.822;2022-10-19T07:22:14;7.90;99.90
24444;DHT22;13346;50.984;5.822;2022-10-19T07:24:43;7.90;99.90
24444;DHT22;13346;50.984;5.822;2022-10-19T07:27:11;7.90;99.90
24444;DHT22;13346;50.984;5.822;2022-10-19T07:29:38;7.90;99.90
24444;DHT22;13346;50.984;5.822;2022-10-19T07:32:05;8.00;99.90
24444;DHT22;13346;50.984;5.822;2022-10-19T07:34:33;8.00;99.90
24444;DHT22;13346;50.984;5.822;2022-10-19T07:37:00;8.10;99.90
24444;DHT22;13346;50.984;5.822;2022-10-19T07:39:27;8.20;99.90
24444;DHT22;13346;50.984;5.822;2022-10-19T07:41:56;8.30;99.90
24444;DHT22;13346;50.984;5.822;2022-10-19T07:44:23;8.30;99.90
24444;DHT22;13346;50.984;5.822;2022-10-19T07:46:50;8.40;99.90
24444;DHT22;13346;50.984;5.822;2022-10-19T07:49:17;8.40;99.90
24444;DHT22;13346;50.984;5.822;2022-10-19T07:51:45;8.50;99.90
24444;DHT22;13346;50.984;5.822;2022-10-19T07:54:13;8.60;99.90
24444;DHT22;13346;50.984;5.822;2022-10-19T07:56:40;8.60;99.90
24444;DHT22;13346;50.984;5.822;2022-10-19T07:59:09;8.70;99.90
24444;DHT22;13346;50.984;5.822;2022-10-19T08:01:39;8.80;99.90
24444;DHT22;13346;50.984;5.822;2022-10-19T08:04:07;8.80;99.90
24444;DHT22;13346;50.984;5.822;2022-10-19T08:06:35;8.90;99.90
24444;DHT22;13346;50.984;5.822;2022-10-19T08:09:03;9.00;99.90
24444;DHT22;13346;50.984;5.822;2022-10-19T08:11:32;9.10;99.90
24444;DHT22;13346;50.984;5.822;2022-10-19T08:14:00;9.20;99.90
24444;DHT22;13346;50.984;5.822;2022-10-19T08:16:31;9.20;99.90
24444;DHT22;13346;50.984;5.822;2022-10-19T08:19:01;9.30;99.90
24444;DHT22;13346;50.984;5.822;2022-10-19T08:21:30;9.40;99.90
24444;DHT22;13346;50.984;5.822;2022-10-19T08:23:57;9.40;99.90
24444;DHT22;13346;50.984;5.822;2022-10-19T08:26:27;9.50;99.90
24444;DHT22;13346;50.984;5.822;2022-10-19T08:28:58;9.60;99.90
24444;DHT22;13346;50.984;5.822;2022-10-19T08:31:25;9.70;99.90
24444;DHT22;13346;50.984;5.822;2022-10-19T08:33:54;9.70;99.90
24444;DHT22;13346;50.984;5.822;2022-10-19T08:36:22;9.80;99.90
24444;DHT22;13346;50.984;5.822;2022-10-19T08:38:49;9.90;99.90
24444;DHT22;13346;50.984;5.822;2022-10-19T08:41:21;9.90;99.90
24444;DHT22;13346;50.984;5.822;2022-10-19T08:46:57;10.00;99.90
24444;DHT22;13346;50.984;5.822;2022-10-19T08:49:29;10.10;99.90
24444;DHT22;13346;50.984;5.822;2022-10-19T08:51:59;10.20;99.90
24444;DHT22;13346;50.984;5.822;2022-10-19T08:54:37;10.30;99.90
24444;DHT22;13346;50.984;5.822;2022-10-19T08:57:13;10.40;99.90
24444;DHT22;13346;50.984;5.822;2022-10-19T08:59:47;10.50;99.90
24444;DHT22;13346;50.984;5.822;2022-10-19T09:02:21;10.60;99.90
24444;DHT22;13346;50.984;5.822;2022-10-19T09:04:57;10.70;99.90
24444;DHT22;13346;50.984;5.822;2022-10-19T09:07:27;10.70;99.90
24444;DHT22;13346;50.984;5.822;2022-10-19T09:09:58;10.70;99.90
24444;DHT22;13346;50.984;5.822;2022-10-19T09:12:36;10.80;99.90
24444;DHT22;13346;50.984;5.822;2022-10-19T09:15:09;10.90;99.90
24444;DHT22;13346;50.984;5.822;2022-10-19T09:17:37;11.00;99.90
24444;DHT22;13346;50.984;5.822;2022-10-19T09:20:17;11.20;99.90
24444;DHT22;13346;50.984;5.822;2022-10-19T09:22:45;11.40;99.90
24444;DHT22;13346;50.984;5.822;2022-10-19T09:25:18;11.50;99.90
24444;DHT22;13346;50.984;5.822;2022-10-19T09:27:49;11.70;99.90
24444;DHT22;13346;50.984;5.822;2022-10-19T09:30:20;12.30;99.90
24444;DHT22;13346;50.984;5.822;2022-10-19T09:32:50;12.60;99.90
24444;DHT22;13346;50.984;5.822;2022-10-19T09:35:26;12.60;99.90
24444;DHT22;13346;50.984;5.822;2022-10-19T09:37:54;12.50;99.90
24444;DHT22;13346;50.984;5.822;2022-10-19T09:40:24;12.20;99.90
24444;DHT22;13346;50.984;5.822;2022-10-19T09:42:52;12.00;99.90
24444;DHT22;13346;50.984;5.822;2022-10-19T09:45:32;12.30;99.90
24444;DHT22;13346;50.984;5.822;2022-10-19T09:48:03;12.30;99.90
24444;DHT22;13346;50.984;5.822;2022-10-19T09:50:32;12.20;99.90
24444;DHT22;13346;50.984;5.822;2022-10-19T09:53:02;12.00;99.90
24444;DHT22;13346;50.984;5.822;2022-10-19T09:55:35;12.20;99.90
24444;DHT22;13346;50.984;5.822;2022-10-19T09:58:08;12.00;99.90
24444;DHT22;13346;50.984;5.822;2022-10-19T10:00:45;12.10;99.90
24444;DHT22;13346;50.984;5.822;2022-10-19T10:03:25;12.00;99.90
24444;DHT22;13346;50.984;5.822;2022-10-19T10:05:55;12.40;99.90
24444;DHT22;13346;50.984;5.822;2022-10-19T10:08:24;12.90;99.90
24444;DHT22;13346;50.984;5.822;2022-10-19T10:11:01;13.10;99.90
24444;DHT22;13346;50.984;5.822;2022-10-19T10:13:29;13.60;99.90
24444;DHT22;13346;50.984;5.822;2022-10-19T10:15:59;13.40;99.90
24444;DHT22;13346;50.984;5.822;2022-10-19T10:18:27;12.70;99.90
24444;DHT22;13346;50.984;5.822;2022-10-19T10:20:59;12.40;99.90
24444;DHT22;13346;50.984;5.822;2022-10-19T10:23:29;12.30;99.90
24444;DHT22;13346;50.984;5.822;2022-10-19T10:26:00;12.90;99.90
24444;DHT22;13346;50.984;5.822;2022-10-19T10:28:29;12.20;99.90
24444;DHT22;13346;50.984;5.822;2022-10-19T10:31:00;12.80;99.90
24444;DHT22;13346;50.984;5.822;2022-10-19T10:33:31;13.60;99.90
24444;DHT22;13346;50.984;5.822;2022-10-19T10:36:03;12.80;99.90
24444;DHT22;13346;50.984;5.822;2022-10-19T10:38:33;12.10;99.90
24444;DHT22;13346;50.984;5.822;2022-10-19T10:41:04;12.00;99.90
24444;DHT22;13346;50.984;5.822;2022-10-19T10:43:37;12.10;99.90
24444;DHT22;13346;50.984;5.822;2022-10-19T10:46:20;11.70;99.90
24444;DHT22;13346;50.984;5.822;2022-10-19T10:48:52;12.10;99.90
24444;DHT22;13346;50.984;5.822;2022-10-19T10:51:33;13.00;99.90
24444;DHT22;13346;50.984;5.822;2022-10-19T10:54:17;12.60;99.90
24444;DHT22;13346;50.984;5.822;2022-10-19T10:56:58;13.50;99.90
24444;DHT22;13346;50.984;5.822;2022-10-19T10:59:32;12.80;99.90
24444;DHT22;13346;50.984;5.822;2022-10-19T11:02:02;12.50;99.90
24444;DHT22;13346;50.984;5.822;2022-10-19T11:04:35;13.10;99.90
24444;DHT22;13346;50.984;5.822;2022-10-19T11:07:15;13.80;99.90
24444;DHT22;13346;50.984;5.822;2022-10-19T11:09:47;13.60;99.90
24444;DHT22;13346;50.984;5.822;2022-10-19T11:12:21;13.60;99.90
24444;DHT22;13346;50.984;5.822;2022-10-19T11:14:55;13.90;99.90
24444;DHT22;13346;50.984;5.822;2022-10-19T11:17:28;13.70;99.90
24444;DHT22;13346;50.984;5.822;2022-10-19T11:19:57;13.50;99.90
24444;DHT22;13346;50.984;5.822;2022-10-19T11:22:28;13.70;99.90
24444;DHT22;13346;50.984;5.822;2022-10-19T11:25:04;13.30;99.90
24444;DHT22;13346;50.984;5.822;2022-10-19T11:27:48;13.50;99.90
24444;DHT22;13346;50.984;5.822;2022-10-19T11:30:18;13.60;99.90
24444;DHT22;13346;50.984;5.822;2022-10-19T11:32:53;13.60;99.90
24444;DHT22;13346;50.984;5.822;2022-10-19T11:35:38;13.70;99.90
24444;DHT22;13346;50.984;5.822;2022-10-19T11:38:28;13.70;99.90
24444;DHT22;13346;50.984;5.822;2022-10-19T11:41:08;14.10;99.90
24444;DHT22;13346;50.984;5.822;2022-10-19T11:43:44;14.50;99.90
24444;DHT22;13346;50.984;5.822;2022-10-19T11:46:19;14.60;99.90
24444;DHT22;13346;50.984;5.822;2022-10-19T11:49:03;14.20;99.90
24444;DHT22;13346;50.984;5.822;2022-10-19T11:51:39;13.70;99.90
24444;DHT22;13346;50.984;5.822;2022-10-19T11:54:19;13.80;99.90
24444;DHT22;13346;50.984;5.822;2022-10-19T11:56:51;14.10;99.90
24444;DHT22;13346;50.984;5.822;2022-10-19T11:59:26;14.80;99.90
24444;DHT22;13346;50.984;5.822;2022-10-19T12:02:03;14.70;99.90
24444;DHT22;13346;50.984;5.822;2022-10-19T12:04:50;15.20;99.90
24444;DHT22;13346;50.984;5.822;2022-10-19T12:07:39;14.80;99.90
24444;DHT22;13346;50.984;5.822;2022-10-19T12:10:20;14.70;99.90
24444;DHT22;13346;50.984;5.822;2022-10-19T12:12:50;14.40;99.90
24444;DHT22;13346;50.984;5.822;2022-10-19T12:15:23;14.80;99.90
24444;DHT22;13346;50.984;5.822;2022-10-19T12:17:55;14.90;99.90
24444;DHT22;13346;50.984;5.822;2022-10-19T12:20:28;14.80;99.90
24444;DHT22;13346;50.984;5.822;2022-10-19T12:22:57;15.20;99.90
24444;DHT22;13346;50.984;5.822;2022-10-19T12:25:27;15.20;99.90
24444;DHT22;13346;50.984;5.822;2022-10-19T12:27:54;15.30;99.90
24444;DHT22;13346;50.984;5.822;2022-10-19T12:30:23;15.00;99.90
24444;DHT22;13346;50.984;5.822;2022-10-19T12:33:04;15.20;99.90
24444;DHT22;13346;50.984;5.822;2022-10-19T12:35:58;14.90;99.90
24444;DHT22;13346;50.984;5.822;2022-10-19T12:38:37;15.50;99.90
24444;DHT22;13346;50.984;5.822;2022-10-19T12:41:17;15.60;99.90
24444;DHT22;13346;50.984;5.822;2022-10-19T12:44:10;15.60;99.90
24444;DHT22;13346;50.984;5.822;2022-10-19T12:46:41;15.40;99.90
24444;DHT22;13346;50.984;5.822;2022-10-19T12:49:44;15.30;99.90
24444;DHT22;13346;50.984;5.822;2022-10-19T12:52:13;15.20;99.90
24444;DHT22;13346;50.984;5.822;2022-10-19T12:54:41;15.10;99.90
24444;DHT22;13346;50.984;5.822;2022-10-19T12:57:26;15.20;99.90
24444;DHT22;13346;50.984;5.822;2022-10-19T13:00:00;15.80;99.90
24444;DHT22;13346;50.984;5.822;2022-10-19T13:02:30;15.90;99.90
24444;DHT22;13346;50.984;5.822;2022-10-19T13:04:58;15.90;99.90
24444;DHT22;13346;50.984;5.822;2022-10-19T13:07:26;15.40;99.90
24444;DHT22;13346;50.984;5.822;2022-10-19T13:09:59;15.30;99.90
24444;DHT22;13346;50.984;5.822;2022-10-19T13:12:46;15.40;99.90
24444;DHT22;13346;50.984;5.822;2022-10-19T13:21:48;15.50;99.90
24444;DHT22;13346;50.984;5.822;2022-10-19T13:24:27;15.00;99.90
24444;DHT22;13346;50.984;5.822;2022-10-19T13:27:24;15.00;99.90
24444;DHT22;13346;50.984;5.822;2022-10-19T13:29:53;15.10;99.90
24444;DHT22;13346;50.984;5.822;2022-10-19T13:32:32;15.30;99.90
24444;DHT22;13346;50.984;5.822;2022-10-19T13:35:24;15.40;99.90
24444;DHT22;13346;50.984;5.822;2022-10-19T13:38:25;15.50;99.90
24444;DHT22;13346;50.984;5.822;2022-10-19T13:41:00;15.60;99.90
24444;DHT22;13346;50.984;5.822;2022-10-19T13:43:30;15.50;99.90
24444;DHT22;13346;50.984;5.822;2022-10-19T13:46:06;15.50;99.90
24444;DHT22;13346;50.984;5.822;2022-10-19T13:48:52;15.90;99.90
24444;DHT22;13346;50.984;5.822;2022-10-19T13:51:28;16.30;99.90
24444;DHT22;13346;50.984;5.822;2022-10-19T13:54:07;16.40;99.90
24444;DHT22;13346;50.984;5.822;2022-10-19T13:57:20;17.00;99.90
24444;DHT22;13346;50.984;5.822;2022-10-19T14:00:10;17.20;99.90
24444;DHT22;13346;50.984;5.822;2022-10-19T14:03:07;17.60;99.90
24444;DHT22;13346;50.984;5.822;2022-10-19T14:05:59;17.40;99.90
24444;DHT22;13346;50.984;5.822;2022-10-19T14:08:49;17.10;99.90
24444;DHT22;13346;50.984;5.822;2022-10-19T14:11:25;17.00;99.90
24444;DHT22;13346;50.984;5.822;2022-10-19T14:14:13;17.50;99.90
24444;DHT22;13346;50.984;5.822;2022-10-19T14:16:46;17.10;99.90
24444;DHT22;13346;50.984;5.822;2022-10-19T14:19:21;17.40;99.90
24444;DHT22;13346;50.984;5.822;2022-10-19T14:21:52;16.90;99.90
24444;DHT22;13346;50.984;5.822;2022-10-19T14:24:25;16.70;99.90
24444;DHT22;13346;50.984;5.822;2022-10-19T14:26:53;16.20;99.90
24444;DHT22;13346;50.984;5.822;2022-10-19T14:29:20;16.40;99.90
24444;DHT22;13346;50.984;5.822;2022-10-19T14:31:48;16.70;99.90
24444;DHT22;13346;50.984;5.822;2022-10-19T14:34:16;16.70;99.90
24444;DHT22;13346;50.984;5.822;2022-10-19T14:36:46;16.80;99.90
24444;DHT22;13346;50.984;5.822;2022-10-19T14:39:30;16.90;99.90
24444;DHT22;13346;50.984;5.822;2022-10-19T14:42:03;16.70;99.90
24444;DHT22;13346;50.984;5.822;2022-10-19T14:44:39;16.60;99.90
24444;DHT22;13346;50.984;5.822;2022-10-19T14:47:18;16.50;99.90
24444;DHT22;13346;50.984;5.822;2022-10-19T14:49:47;16.60;99.90
24444;DHT22;13346;50.984;5.822;2022-10-19T14:52:18;16.40;99.90
24444;DHT22;13346;50.984;5.822;2022-10-19T14:54:50;16.20;99.90
24444;DHT22;13346;50.984;5.822;2022-10-19T14:57:22;16.70;99.90
24444;DHT22;13346;50.984;5.822;2022-10-19T14:59:52;16.40;99.90
24444;DHT22;13346;50.984;5.822;2022-10-19T15:02:24;16.60;99.90
24444;DHT22;13346;50.984;5.822;2022-10-19T15:04:55;16.20;99.90
24444;DHT22;13346;50.984;5.822;2022-10-19T15:07:25;15.90;99.90
24444;DHT22;13346;50.984;5.822;2022-10-19T15:09:56;16.20;99.90
24444;DHT22;13346;50.984;5.822;2022-10-19T15:12:27;16.30;99.90
24444;DHT22;13346;50.984;5.822;2022-10-19T15:14:56;16.40;99.90
24444;DHT22;13346;50.984;5.822;2022-10-19T15:17:26;16.10;99.90
24444;DHT22;13346;50.984;5.822;2022-10-19T15:19:55;15.80;99.90
24444;DHT22;13346;50.984;5.822;2022-10-19T15:22:37;15.50;99.90
24444;DHT22;13346;50.984;5.822;2022-10-19T15:25:27;15.10;99.90
24444;DHT22;13346;50.984;5.822;2022-10-19T15:27:54;15.10;99.90
24444;DHT22;13346;50.984;5.822;2022-10-19T15:30:25;15.10;99.90
24444;DHT22;13346;50.984;5.822;2022-10-19T15:33:07;15.10;99.90
24444;DHT22;13346;50.984;5.822;2022-10-19T15:35:38;15.00;99.90
24444;DHT22;13346;50.984;5.822;2022-10-19T15:38:11;14.80;99.90
24444;DHT22;13346;50.984;5.822;2022-10-19T15:40:42;14.70;99.90
24444;DHT22;13346;50.984;5.822;2022-10-19T15:43:34;14.80;99.90
24444;DHT22;13346;50.984;5.822;2022-10-19T15:46:03;14.70;99.90
24444;DHT22;13346;50.984;5.822;2022-10-19T15:48:46;14.70;99.90
24444;DHT22;13346;50.984;5.822;2022-10-19T15:51:44;14.70;99.90
24444;DHT22;13346;50.984;5.822;2022-10-19T15:54:12;14.80;99.90
24444;DHT22;13346;50.984;5.822;2022-10-19T15:56:44;14.60;99.90
24444;DHT22;13346;50.984;5.822;2022-10-19T15:59:14;14.60;99.90
24444;DHT22;13346;50.984;5.822;2022-10-19T16:01:42;14.50;99.90
24444;DHT22;13346;50.984;5.822;2022-10-19T16:04:09;14.40;99.90
24444;DHT22;13346;50.984;5.822;2022-10-19T16:06:40;14.30;99.90
24444;DHT22;13346;50.984;5.822;2022-10-19T16:09:13;14.40;99.90
24444;DHT22;13346;50.984;5.822;2022-10-19T16:11:42;14.30;99.90
24444;DHT22;13346;50.984;5.822;2022-10-19T16:14:09;14.20;99.90
24444;DHT22;13346;50.984;5.822;2022-10-19T16:16:36;14.30;99.90
24444;DHT22;13346;50.984;5.822;2022-10-19T16:19:03;14.20;99.90
24444;DHT22;13346;50.984;5.822;2022-10-19T16:21:33;14.10;99.90